createdAt,value
2023-02-19T00:01:56.667Z,11.65
2023-02-19T00:05:19.756Z,11.67
2023-02-19T00:08:42.343Z,11.61
2023-02-19T00:12:05.104Z,11.77
2023-02-19T00:15:27.306Z,11.71
2023-02-19T00:18:51.858Z,11.67
2023-02-19T00:22:14.245Z,11.55
2023-02-19T00:25:38.043Z,11.51
2023-02-19T00:29:01.141Z,11.42
2023-02-19T00:32:24.335Z,11.37
2023-02-19T00:35:51.265Z,11.40
2023-02-19T00:39:15.775Z,11.42
2023-02-19T00:42:38.418Z,11.29
2023-02-19T00:46:01.517Z,11.37
2023-02-19T00:49:24.284Z,11.22
2023-02-19T00:52:50.626Z,11.14
2023-02-19T00:56:16.070Z,11.15
2023-02-19T00:59:38.742Z,11.06
2023-02-19T01:03:01.362Z,11.01
2023-02-19T01:06:24.328Z,10.94
2023-02-19T01:09:48.300Z,10.94
2023-02-19T01:13:11.066Z,10.83
2023-02-19T01:16:33.630Z,10.66
2023-02-19T01:19:57.015Z,10.65
2023-02-19T01:23:19.669Z,10.65
2023-02-19T01:26:44.290Z,10.77
2023-02-19T01:30:07.607Z,10.68
2023-02-19T01:33:30.826Z,10.83
2023-02-19T01:36:53.879Z,10.60
2023-02-19T01:40:20.280Z,10.71
2023-02-19T01:44:02.392Z,10.60
2023-02-19T01:47:24.865Z,10.67
2023-02-19T01:50:48.953Z,10.72
2023-02-19T01:54:12.292Z,10.40
2023-02-19T01:57:36.836Z,10.44
2023-02-19T02:01:00.903Z,10.45
2023-02-19T02:04:23.776Z,10.25
2023-02-19T02:08:03.512Z,10.16
2023-02-19T02:11:27.501Z,10.03
2023-02-19T02:14:50.166Z,10.06
2023-02-19T02:18:17.493Z,10.05
2023-02-19T02:21:52.866Z,9.97
2023-02-19T02:25:35.055Z,10.05
2023-02-19T02:29:24.349Z,10.15
2023-02-19T02:32:53.705Z,10.21
2023-02-19T02:36:18.744Z,10.37
2023-02-19T02:39:41.538Z,10.10
2023-02-19T02:43:04.762Z,10.33
2023-02-19T02:46:31.539Z,10.35
2023-02-19T02:50:06.117Z,10.24
2023-02-19T02:53:48.495Z,10.38
2023-02-19T02:57:15.061Z,10.27
2023-02-19T03:00:52.760Z,10.55
2023-02-19T03:04:20.059Z,10.46
2023-02-19T03:07:46.692Z,10.48
2023-02-19T03:11:28.876Z,10.41
2023-02-19T03:15:10.290Z,10.30
2023-02-19T03:18:53.032Z,10.49
2023-02-19T03:22:17.792Z,10.57
2023-02-19T03:26:01.707Z,10.49
2023-02-19T03:29:26.298Z,10.48
2023-02-19T03:32:53.202Z,10.46
2023-02-19T03:36:15.808Z,10.59
2023-02-19T03:39:44.523Z,10.63
2023-02-19T03:43:11.524Z,10.58
2023-02-19T03:46:43.338Z,10.43
2023-02-19T03:50:09.256Z,10.36
2023-02-19T03:53:35.868Z,10.19
2023-02-19T03:57:00.746Z,10.23
2023-02-19T04:00:26.456Z,10.12
2023-02-19T04:03:52.291Z,10.00
2023-02-19T04:07:14.766Z,10.05
2023-02-19T04:10:37.897Z,9.98
2023-02-19T04:14:02.619Z,9.97
2023-02-19T04:17:27.655Z,9.66
2023-02-19T04:20:50.462Z,9.83
2023-02-19T04:24:14.567Z,9.90
2023-02-19T04:27:37.566Z,9.95
2023-02-19T04:30:59.893Z,9.91
2023-02-19T04:34:23.639Z,9.82
2023-02-19T04:37:46.410Z,9.71
2023-02-19T04:41:09.779Z,9.70
2023-02-19T04:44:33.381Z,9.77
2023-02-19T04:47:55.849Z,9.73
2023-02-19T04:51:19.674Z,9.61
2023-02-19T04:54:42.108Z,9.50
2023-02-19T04:58:04.613Z,9.39
2023-02-19T05:01:26.999Z,9.43
2023-02-19T05:04:50.116Z,9.33
2023-02-19T05:08:14.027Z,9.27
2023-02-19T05:11:37.101Z,9.32
2023-02-19T05:14:59.600Z,9.09
2023-02-19T05:18:22.233Z,9.06
2023-02-19T05:21:44.741Z,9.09
2023-02-19T05:25:09.158Z,9.08
2023-02-19T05:28:31.440Z,9.16
2023-02-19T05:31:54.115Z,8.86
2023-02-19T05:35:19.200Z,9.22
2023-02-19T05:38:42.142Z,9.09
2023-02-19T05:42:06.612Z,9.31
2023-02-19T05:45:29.379Z,9.17
2023-02-19T05:48:52.498Z,9.23
2023-02-19T05:52:14.917Z,9.19
2023-02-19T05:55:37.632Z,9.22
2023-02-19T05:59:01.728Z,9.27
2023-02-19T06:02:24.113Z,9.27
2023-02-19T06:05:47.141Z,9.31
2023-02-19T06:09:09.571Z,9.37
2023-02-19T06:12:32.271Z,9.40
2023-02-19T06:15:56.341Z,9.34
2023-02-19T06:19:19.165Z,9.33
2023-02-19T06:22:41.276Z,9.41
2023-02-19T06:26:08.946Z,9.25
2023-02-19T06:29:32.608Z,9.17
2023-02-19T06:32:59.135Z,8.85
2023-02-19T06:36:22.005Z,8.61
2023-02-19T06:39:44.940Z,8.32
2023-02-19T06:43:07.311Z,8.45
2023-02-19T06:46:30.001Z,8.30
2023-02-19T06:49:54.076Z,8.14
2023-02-19T06:53:16.853Z,7.94
2023-02-19T06:56:40.795Z,7.98
2023-02-19T07:00:04.716Z,7.94
2023-02-19T07:03:27.428Z,7.84
2023-02-19T07:06:51.903Z,7.79
2023-02-19T07:10:14.538Z,7.86
2023-02-19T07:13:37.621Z,7.83
2023-02-19T07:16:59.898Z,7.78
2023-02-19T07:20:23.078Z,7.82
2023-02-19T07:23:46.940Z,7.79
2023-02-19T07:27:09.338Z,7.86
2023-02-19T07:30:31.860Z,7.89
2023-02-19T07:33:55.711Z,7.87
2023-02-19T07:37:18.078Z,7.88
2023-02-19T07:40:42.679Z,7.87
2023-02-19T07:44:05.626Z,8.05
2023-02-19T07:47:28.779Z,8.10
2023-02-19T07:50:54.621Z,8.12
2023-02-19T07:54:17.780Z,8.12
2023-02-19T07:57:41.788Z,8.21
2023-02-19T08:01:12.387Z,8.39
2023-02-19T08:04:35.857Z,8.35
2023-02-19T08:07:58.043Z,8.46
2023-02-19T08:11:38.307Z,8.55
2023-02-19T08:15:02.257Z,8.60
2023-02-19T08:18:26.574Z,8.70
2023-02-19T08:21:49.072Z,8.76
2023-02-19T08:25:11.706Z,8.96
2023-02-19T08:28:34.341Z,8.88
2023-02-19T08:31:58.343Z,8.84
2023-02-19T08:35:20.912Z,8.73
2023-02-19T08:38:43.652Z,8.65
2023-02-19T08:42:06.722Z,8.51
2023-02-19T08:45:29.837Z,8.48
2023-02-19T08:48:53.869Z,8.38
2023-02-19T08:52:16.247Z,8.30
2023-02-19T08:55:39.010Z,8.39
2023-02-19T08:59:01.660Z,8.33
2023-02-19T09:02:24.296Z,8.38
2023-02-19T09:05:49.002Z,8.36
2023-02-19T09:09:11.466Z,8.29
2023-02-19T09:12:34.421Z,8.27
2023-02-19T09:15:57.947Z,8.17
2023-02-19T09:19:20.849Z,8.20
2023-02-19T09:22:47.461Z,8.18
2023-02-19T09:26:11.592Z,8.14
2023-02-19T09:29:34.595Z,7.97
2023-02-19T09:32:57.144Z,8.05
2023-02-19T09:36:19.868Z,8.09
2023-02-19T09:39:44.393Z,8.12
2023-02-19T09:43:08.001Z,8.05
2023-02-19T09:46:32.736Z,8.00
2023-02-19T09:49:56.435Z,8.16
2023-02-19T09:53:21.081Z,8.48
2023-02-19T09:56:44.918Z,8.76
2023-02-19T10:00:14.296Z,8.81
2023-02-19T10:03:41.749Z,8.60
2023-02-19T10:07:04.889Z,8.79
2023-02-19T10:10:31.883Z,9.21
2023-02-19T10:13:57.318Z,9.17
2023-02-19T10:17:23.821Z,9.20
2023-02-19T10:20:47.266Z,9.34
2023-02-19T10:24:12.188Z,9.48
2023-02-19T10:27:35.695Z,10.29
2023-02-19T10:31:00.369Z,11.85
2023-02-19T10:34:23.705Z,12.37
2023-02-19T10:37:49.035Z,12.96
2023-02-19T10:41:14.518Z,11.91
2023-02-19T10:44:43.045Z,12.98
2023-02-19T10:48:07.564Z,13.03
2023-02-19T10:51:36.088Z,13.88
2023-02-19T10:54:59.883Z,13.11
2023-02-19T10:58:28.421Z,12.47
2023-02-19T11:01:58.682Z,12.37
2023-02-19T11:05:24.399Z,12.36
2023-02-19T11:08:51.587Z,12.87
2023-02-19T11:12:25.221Z,13.55
2023-02-19T11:15:52.419Z,14.28
2023-02-19T11:19:24.958Z,14.79
2023-02-19T11:22:49.944Z,15.47
2023-02-19T11:26:19.235Z,16.03
2023-02-19T11:29:42.226Z,15.88
2023-02-19T11:33:31.400Z,16.68
2023-02-19T11:37:08.635Z,16.88
2023-02-19T11:40:42.460Z,16.82
2023-02-19T11:44:14.275Z,17.77
2023-02-19T11:47:49.479Z,18.23
2023-02-19T11:51:42.973Z,17.91
2023-02-19T11:55:11.329Z,18.24
2023-02-19T11:59:03.970Z,18.61
2023-02-19T12:02:35.256Z,16.45
2023-02-19T12:06:19.754Z,16.85
2023-02-19T12:09:49.107Z,17.16
2023-02-19T12:13:15.932Z,17.78
2023-02-19T12:16:41.820Z,17.64
2023-02-19T12:20:13.387Z,18.05
2023-02-19T12:24:10.044Z,17.86
2023-02-19T12:27:43.858Z,17.14
2023-02-19T12:31:17.060Z,16.20
2023-02-19T12:35:17.859Z,16.68
2023-02-19T12:38:45.087Z,16.81
2023-02-19T12:42:16.135Z,17.65
2023-02-19T12:45:40.879Z,17.11
2023-02-19T12:49:08.723Z,17.98
2023-02-19T12:52:34.609Z,18.41
2023-02-19T12:56:00.014Z,18.75
2023-02-19T12:59:29.401Z,18.03
2023-02-19T13:02:53.414Z,18.02
2023-02-19T13:06:21.632Z,18.79
2023-02-19T13:09:47.698Z,17.52
2023-02-19T13:13:19.345Z,17.05
2023-02-19T13:16:44.205Z,16.02
2023-02-19T13:20:15.055Z,15.42
2023-02-19T13:24:05.946Z,14.35
2023-02-19T13:27:56.985Z,13.41
2023-02-19T13:31:35.595Z,12.84
2023-02-19T13:35:18.412Z,12.58
2023-02-19T13:38:43.126Z,12.68
2023-02-19T13:42:07.459Z,12.78
2023-02-19T13:45:34.847Z,12.99
2023-02-19T13:49:40.793Z,12.89
2023-02-19T13:53:09.451Z,13.14
2023-02-19T13:56:40.056Z,13.44
2023-02-19T14:00:03.852Z,13.52
2023-02-19T14:03:29.289Z,13.56
2023-02-19T14:07:39.384Z,13.42
2023-02-19T14:11:05.522Z,11.68
2023-02-19T14:14:30.765Z,10.48
2023-02-19T14:17:55.377Z,10.51
2023-02-19T14:21:20.446Z,10.24
2023-02-19T14:24:44.635Z,10.04
2023-02-19T14:28:20.799Z,10.09
2023-02-19T14:31:46.150Z,10.09
2023-02-19T14:35:19.758Z,10.16
2023-02-19T14:38:46.954Z,10.23
2023-02-19T14:42:16.322Z,10.13
2023-02-19T14:45:50.665Z,10.15
2023-02-19T14:49:16.253Z,10.20
2023-02-19T14:52:41.575Z,10.01
2023-02-19T14:56:06.033Z,9.96
2023-02-19T14:59:30.345Z,10.09
2023-02-19T15:02:59.914Z,10.38
2023-02-19T15:06:24.820Z,10.68
2023-02-19T15:09:50.713Z,11.01
2023-02-19T15:13:18.864Z,11.75
2023-02-19T15:16:43.151Z,11.38
2023-02-19T15:20:13.388Z,11.11
2023-02-19T15:23:37.982Z,10.70
2023-02-19T15:27:06.453Z,10.51
2023-02-19T15:30:34.350Z,10.43
2023-02-19T15:33:58.531Z,10.20
2023-02-19T15:37:24.931Z,10.19
2023-02-19T15:40:49.002Z,10.25
2023-02-19T15:44:21.025Z,10.19
2023-02-19T15:47:45.993Z,10.22
2023-02-19T15:51:11.332Z,10.27
2023-02-19T15:54:39.733Z,10.27
2023-02-19T15:58:06.637Z,10.18
2023-02-19T16:01:31.515Z,10.06
2023-02-19T16:04:56.197Z,10.08
2023-02-19T16:08:21.405Z,9.93
2023-02-19T16:11:52.176Z,10.05
2023-02-19T16:15:17.623Z,9.93
2023-02-19T16:18:46.016Z,9.96
2023-02-19T16:22:09.863Z,9.94
2023-02-19T16:25:37.781Z,9.87
2023-02-19T16:29:03.155Z,9.93
2023-02-19T16:32:27.170Z,10.03
2023-02-19T16:35:52.558Z,9.98
2023-02-19T16:39:29.621Z,9.91
2023-02-19T16:43:26.719Z,9.86
2023-02-19T16:46:55.499Z,9.90
2023-02-19T16:50:22.974Z,9.82
2023-02-19T16:53:47.899Z,9.83
2023-02-19T16:57:13.219Z,9.83
2023-02-19T17:00:37.910Z,9.78
2023-02-19T17:04:05.028Z,9.74
2023-02-19T17:07:30.101Z,9.80
2023-02-19T17:10:58.702Z,9.79
2023-02-19T17:14:24.049Z,9.55
2023-02-19T17:17:47.606Z,9.43
2023-02-19T17:21:15.922Z,9.36
2023-02-19T17:24:42.772Z,9.28
2023-02-19T17:28:08.121Z,9.27
2023-02-19T17:31:35.007Z,9.27
2023-02-19T17:34:59.850Z,9.30
2023-02-19T17:38:26.022Z,9.21
2023-02-19T17:41:50.462Z,9.11
2023-02-19T17:45:20.220Z,9.26
2023-02-19T17:48:45.326Z,9.13
2023-02-19T17:52:09.404Z,9.15
2023-02-19T17:55:41.351Z,9.09
2023-02-19T17:59:09.334Z,9.20
2023-02-19T18:02:34.639Z,9.14
2023-02-19T18:05:59.157Z,9.18
2023-02-19T18:09:23.464Z,9.13
2023-02-19T18:12:50.560Z,9.14
2023-02-19T18:16:16.298Z,9.12
2023-02-19T18:19:41.787Z,9.18
2023-02-19T18:23:06.619Z,9.34
2023-02-19T18:26:34.054Z,9.21
2023-02-19T18:30:01.168Z,9.29
2023-02-19T18:33:26.061Z,9.26
2023-02-19T18:36:50.590Z,9.22
2023-02-19T18:40:16.266Z,9.18
2023-02-19T18:43:42.547Z,9.00
2023-02-19T18:47:08.625Z,8.95
2023-02-19T18:50:33.997Z,8.92
2023-02-19T18:54:04.626Z,8.72
2023-02-19T18:57:30.473Z,8.61
2023-02-19T19:00:55.358Z,8.48
2023-02-19T19:04:22.107Z,8.53
2023-02-19T19:07:47.207Z,8.44
2023-02-19T19:11:13.504Z,8.25
2023-02-19T19:14:38.879Z,8.33
2023-02-19T19:18:03.430Z,8.36
2023-02-19T19:21:29.974Z,8.47
2023-02-19T19:24:56.855Z,8.39
2023-02-19T19:28:21.786Z,8.32
2023-02-19T19:31:46.667Z,8.21
2023-02-19T19:35:13.849Z,8.28
2023-02-19T19:38:41.612Z,8.28
2023-02-19T19:42:09.278Z,8.27
2023-02-19T19:45:34.210Z,8.24
2023-02-19T19:49:00.356Z,8.19
2023-02-19T19:52:26.548Z,8.19
2023-02-19T19:55:54.703Z,8.24
2023-02-19T19:59:19.215Z,8.15
2023-02-19T20:02:43.802Z,8.09
2023-02-19T20:06:12.367Z,8.12
2023-02-19T20:09:37.401Z,8.07
2023-02-19T20:13:05.906Z,8.17
2023-02-19T20:16:31.844Z,8.14
2023-02-19T20:19:57.062Z,8.24
2023-02-19T20:23:27.361Z,8.16
2023-02-19T20:26:52.084Z,8.20
2023-02-19T20:30:18.873Z,8.23
2023-02-19T20:33:42.643Z,8.25
2023-02-19T20:37:07.309Z,8.14
2023-02-19T20:40:33.004Z,8.06
2023-02-19T20:43:57.656Z,7.97
2023-02-19T20:47:24.313Z,7.74
2023-02-19T20:50:47.729Z,7.77
2023-02-19T20:54:13.260Z,7.68
2023-02-19T20:57:38.156Z,7.55
2023-02-19T21:01:02.872Z,7.59
2023-02-19T21:04:28.639Z,7.43
2023-02-19T21:07:56.937Z,7.31
2023-02-19T21:11:20.733Z,7.15
2023-02-19T21:14:47.699Z,7.06
2023-02-19T21:18:11.594Z,6.96
2023-02-19T21:21:39.618Z,6.80
2023-02-19T21:25:04.741Z,6.79
2023-02-19T21:28:29.351Z,6.80
2023-02-19T21:31:55.752Z,6.60
2023-02-19T21:35:19.373Z,6.60
2023-02-19T21:38:46.812Z,6.53
2023-02-19T21:42:10.976Z,6.47
2023-02-19T21:45:36.590Z,6.47
2023-02-19T21:49:00.145Z,6.30
2023-02-19T21:52:23.476Z,6.24
2023-02-19T21:55:58.280Z,6.12
2023-02-19T21:59:21.234Z,6.01
2023-02-19T22:02:44.469Z,5.95
2023-02-19T22:06:07.862Z,5.94
2023-02-19T22:09:30.133Z,5.94
2023-02-19T22:12:54.545Z,5.86
2023-02-19T22:16:17.131Z,5.88
2023-02-19T22:19:42.920Z,5.72
2023-02-19T22:23:05.343Z,5.60
2023-02-19T22:26:28.988Z,5.60
2023-02-19T22:29:52.561Z,5.68
2023-02-19T22:33:15.145Z,5.57
2023-02-19T22:36:38.351Z,5.58
2023-02-19T22:40:00.941Z,5.57
2023-02-19T22:43:23.398Z,5.51
2023-02-19T22:46:52.173Z,5.44
2023-02-19T22:50:18.572Z,5.37
2023-02-19T22:53:45.177Z,5.37
2023-02-19T22:57:07.883Z,5.25
2023-02-19T23:00:30.806Z,5.20
2023-02-19T23:03:55.566Z,5.11
2023-02-19T23:07:18.389Z,5.12
2023-02-19T23:10:41.095Z,5.06
2023-02-19T23:14:03.724Z,5.00
2023-02-19T23:17:26.174Z,4.95
2023-02-19T23:20:50.651Z,4.96
2023-02-19T23:24:12.986Z,5.02
2023-02-19T23:27:36.068Z,4.92
2023-02-19T23:30:58.570Z,4.79
2023-02-19T23:34:21.338Z,4.87
2023-02-19T23:37:45.220Z,4.78
2023-02-19T23:41:10.150Z,4.82
2023-02-19T23:44:32.717Z,4.74
2023-02-19T23:47:55.638Z,4.68
2023-02-19T23:51:18.064Z,4.65
2023-02-19T23:54:42.317Z,4.64
2023-02-19T23:58:04.491Z,4.60
